createdAt,value
2023-04-29T00:01:11.651Z,90.30
2023-04-29T00:03:39.765Z,90.30
2023-04-29T00:06:08.063Z,90.50
2023-04-29T00:08:36.196Z,90.40
2023-04-29T00:11:04.646Z,90.40
2023-04-29T00:13:32.516Z,90.50
2023-04-29T00:16:00.498Z,90.40
2023-04-29T00:18:29.714Z,90.50
2023-04-29T00:20:57.557Z,90.50
2023-04-29T00:23:25.556Z,90.60
2023-04-29T00:25:53.590Z,90.60
2023-04-29T00:28:21.670Z,90.50
2023-04-29T00:30:49.799Z,90.60
2023-04-29T00:33:17.704Z,90.50
2023-04-29T00:35:47.299Z,90.60
2023-04-29T00:38:15.503Z,90.70
2023-04-29T00:40:44.016Z,90.40
2023-04-29T00:43:11.845Z,90.70
2023-04-29T00:45:39.676Z,89.70
2023-04-29T00:48:08.291Z,90.60
2023-04-29T00:50:36.917Z,90.60
2023-04-29T00:53:06.718Z,90.60
2023-04-29T00:55:34.977Z,90.60
2023-04-29T00:58:04.201Z,90.70
2023-04-29T01:00:32.323Z,90.80
2023-04-29T01:03:00.568Z,90.70
2023-04-29T01:05:28.784Z,90.70
2023-04-29T01:08:11.480Z,90.70
2023-04-29T01:10:49.416Z,90.80
2023-04-29T01:13:23.045Z,90.60
2023-04-29T01:15:58.860Z,90.70
2023-04-29T01:18:30.478Z,90.70
2023-04-29T01:20:59.001Z,90.70
2023-04-29T01:23:29.250Z,90.70
2023-04-29T01:25:57.584Z,90.60
2023-04-29T01:28:39.226Z,90.60
2023-04-29T01:31:10.034Z,90.80
2023-04-29T01:33:45.539Z,90.70
2023-04-29T01:36:22.272Z,90.80
2023-04-29T01:38:58.997Z,90.80
2023-04-29T01:41:37.044Z,90.80
2023-04-29T01:44:09.087Z,90.80
2023-04-29T01:46:37.474Z,90.60
2023-04-29T01:49:05.335Z,90.80
2023-04-29T01:51:34.042Z,90.70
2023-04-29T01:54:05.165Z,90.70
2023-04-29T01:56:32.968Z,91.00
2023-04-29T01:59:00.810Z,91.00
2023-04-29T02:01:28.564Z,90.70
2023-04-29T02:03:56.516Z,90.70
2023-04-29T02:06:24.537Z,90.70
2023-04-29T02:08:52.370Z,90.70
2023-04-29T02:11:21.784Z,90.80
2023-04-29T02:13:49.771Z,90.70
2023-04-29T02:16:17.891Z,90.60
2023-04-29T02:18:46.094Z,90.60
2023-04-29T02:21:13.930Z,90.50
2023-04-29T02:23:41.703Z,90.60
2023-04-29T02:26:10.552Z,90.90
2023-04-29T02:28:39.771Z,90.60
2023-04-29T02:31:07.825Z,90.60
2023-04-29T02:33:35.894Z,90.60
2023-04-29T02:36:04.012Z,90.60
2023-04-29T02:38:31.841Z,90.60
2023-04-29T02:40:59.650Z,90.60
2023-04-29T02:43:30.817Z,90.60
2023-04-29T02:46:00.320Z,90.60
2023-04-29T02:48:28.488Z,90.60
2023-04-29T02:50:56.379Z,90.60
2023-04-29T02:53:24.289Z,90.60
2023-04-29T02:55:52.134Z,90.50
2023-04-29T02:58:19.927Z,90.70
2023-04-29T03:00:47.768Z,90.70
2023-04-29T03:03:17.300Z,90.70
2023-04-29T03:05:45.504Z,90.60
2023-04-29T03:08:13.350Z,90.50
2023-04-29T03:10:41.809Z,90.50
2023-04-29T03:13:09.773Z,90.60
2023-04-29T03:15:39.346Z,90.60
2023-04-29T03:18:07.307Z,90.60
2023-04-29T03:20:36.984Z,90.60
2023-04-29T03:23:05.169Z,90.70
2023-04-29T03:25:32.993Z,90.50
2023-04-29T03:28:00.877Z,90.60
2023-04-29T03:30:28.675Z,90.50
2023-04-29T03:32:56.560Z,90.50
2023-04-29T03:35:24.629Z,90.50
2023-04-29T03:37:53.887Z,90.40
2023-04-29T03:40:21.685Z,90.40
2023-04-29T03:42:49.791Z,90.30
2023-04-29T03:45:17.814Z,90.20
2023-04-29T03:47:45.915Z,90.20
2023-04-29T03:50:13.848Z,90.10
2023-04-29T03:52:41.894Z,90.10
2023-04-29T03:55:11.627Z,90.10
2023-04-29T03:57:42.141Z,90.20
2023-04-29T04:00:11.484Z,90.10
2023-04-29T04:02:39.532Z,90.10
2023-04-29T04:05:07.839Z,90.00
2023-04-29T04:07:35.759Z,90.10
2023-04-29T04:10:03.613Z,90.00
2023-04-29T04:12:32.745Z,90.00
2023-04-29T04:15:00.538Z,89.80
2023-04-29T04:17:28.363Z,89.60
2023-04-29T04:19:56.681Z,89.50
2023-04-29T04:22:24.458Z,89.20
2023-04-29T04:24:52.384Z,89.40
2023-04-29T04:27:20.317Z,89.10
2023-04-29T04:29:49.973Z,88.50
2023-04-29T04:32:17.962Z,89.00
2023-04-29T04:34:46.074Z,89.10
2023-04-29T04:37:13.942Z,88.80
2023-04-29T04:39:41.714Z,88.90
2023-04-29T04:42:09.496Z,88.90
2023-04-29T04:44:37.572Z,88.60
2023-04-29T04:47:07.176Z,88.30
2023-04-29T04:49:35.067Z,88.40
2023-04-29T04:52:02.849Z,90.30
2023-04-29T04:54:30.927Z,88.40
2023-04-29T04:56:58.805Z,88.60
2023-04-29T04:59:26.681Z,88.40
2023-04-29T05:01:54.502Z,88.60
2023-04-29T05:04:23.844Z,88.60
2023-04-29T05:06:51.851Z,88.60
2023-04-29T05:09:19.670Z,88.80
2023-04-29T05:11:47.583Z,88.80
2023-04-29T05:14:15.399Z,88.60
2023-04-29T05:16:43.653Z,89.10
2023-04-29T05:19:11.676Z,89.00
2023-04-29T05:21:40.914Z,89.00
2023-04-29T05:24:08.780Z,89.20
2023-04-29T05:26:36.677Z,89.00
2023-04-29T05:29:04.538Z,88.70
2023-04-29T05:31:33.413Z,88.90
2023-04-29T05:34:01.201Z,89.00
2023-04-29T05:36:29.686Z,89.10
2023-04-29T05:38:59.028Z,89.10
2023-04-29T05:41:26.960Z,89.20
2023-04-29T05:43:54.779Z,89.10
2023-04-29T05:46:23.186Z,89.20
2023-04-29T05:48:51.172Z,89.00
2023-04-29T05:51:19.161Z,88.90
2023-04-29T05:53:46.952Z,88.80
2023-04-29T05:56:16.763Z,89.00
2023-04-29T05:58:44.921Z,89.10
2023-04-29T06:01:12.969Z,89.20
2023-04-29T06:03:41.890Z,88.90
2023-04-29T06:06:10.526Z,89.00
2023-04-29T06:08:38.599Z,89.20
2023-04-29T06:11:06.554Z,89.30
2023-04-29T06:13:36.195Z,89.40
2023-04-29T06:16:04.531Z,89.50
2023-04-29T06:18:32.491Z,89.50
2023-04-29T06:21:00.296Z,89.70
2023-04-29T06:23:28.162Z,89.70
2023-04-29T06:25:56.316Z,89.60
2023-04-29T06:28:24.159Z,89.50
2023-04-29T06:30:53.265Z,89.20
2023-04-29T06:33:21.202Z,89.30
2023-04-29T06:35:49.099Z,89.30
2023-04-29T06:38:16.927Z,89.40
2023-04-29T06:40:45.136Z,89.90
2023-04-29T06:43:13.079Z,88.90
2023-04-29T06:45:41.242Z,88.70
2023-04-29T06:48:10.654Z,88.90
2023-04-29T06:50:38.712Z,88.60
2023-04-29T06:53:06.501Z,88.80
2023-04-29T06:55:36.198Z,88.60
2023-04-29T06:58:04.498Z,88.50
2023-04-29T07:00:32.652Z,88.20
2023-04-29T07:03:00.762Z,88.20
2023-04-29T07:05:30.071Z,88.10
2023-04-29T07:07:58.073Z,87.80
2023-04-29T07:10:26.458Z,87.50
2023-04-29T07:12:54.717Z,86.80
2023-04-29T07:15:22.613Z,86.60
2023-04-29T07:17:50.623Z,86.40
2023-04-29T07:20:20.731Z,86.10
2023-04-29T07:22:51.582Z,88.30
2023-04-29T07:25:19.584Z,87.60
2023-04-29T07:27:47.830Z,86.20
2023-04-29T07:30:16.832Z,85.90
2023-04-29T07:32:45.048Z,85.90
2023-04-29T07:35:13.041Z,86.00
2023-04-29T07:37:43.841Z,86.30
2023-04-29T07:40:13.960Z,86.00
2023-04-29T07:42:41.980Z,86.30
2023-04-29T07:45:10.611Z,86.10
2023-04-29T07:47:38.482Z,86.00
2023-04-29T07:50:07.395Z,85.70
2023-04-29T07:52:35.421Z,85.50
2023-04-29T07:55:04.017Z,85.00
2023-04-29T07:57:33.147Z,84.70
2023-04-29T08:00:01.173Z,84.50
2023-04-29T08:02:29.176Z,84.10
2023-04-29T08:04:58.209Z,83.90
2023-04-29T08:07:26.693Z,83.80
2023-04-29T08:09:54.542Z,83.60
2023-04-29T08:12:22.421Z,83.80
2023-04-29T08:14:51.729Z,82.80
2023-04-29T08:17:19.619Z,82.10
2023-04-29T08:19:47.606Z,81.90
2023-04-29T08:22:15.517Z,81.80
2023-04-29T08:24:45.194Z,81.50
2023-04-29T08:27:13.095Z,81.30
2023-04-29T08:29:40.902Z,80.40
2023-04-29T08:32:10.399Z,81.10
2023-04-29T08:34:38.189Z,80.70
2023-04-29T08:37:06.031Z,80.80
2023-04-29T08:39:33.889Z,79.80
2023-04-29T08:42:08.559Z,79.40
2023-04-29T08:44:36.862Z,79.70
2023-04-29T08:47:04.747Z,79.70
2023-04-29T08:49:34.183Z,79.80
2023-04-29T08:52:02.702Z,79.60
2023-04-29T08:54:30.665Z,80.30
2023-04-29T08:56:59.804Z,80.20
2023-04-29T08:59:29.142Z,80.60
2023-04-29T09:01:58.486Z,81.10
2023-04-29T09:04:38.820Z,80.30
2023-04-29T09:07:08.134Z,79.30
2023-04-29T09:09:36.740Z,78.10
2023-04-29T09:12:04.778Z,77.50
2023-04-29T09:14:34.525Z,77.10
2023-04-29T09:17:02.484Z,77.30
2023-04-29T09:19:33.197Z,76.70
2023-04-29T09:22:02.068Z,77.50
2023-04-29T09:24:31.900Z,76.60
2023-04-29T09:27:00.333Z,75.50
2023-04-29T09:29:28.204Z,76.30
2023-04-29T09:31:58.500Z,75.70
2023-04-29T09:34:35.706Z,74.60
2023-04-29T09:37:03.657Z,73.90
2023-04-29T09:39:40.408Z,74.70
2023-04-29T09:42:09.683Z,74.10
2023-04-29T09:44:37.505Z,75.60
2023-04-29T09:47:07.354Z,74.90
2023-04-29T09:49:39.651Z,72.50
2023-04-29T09:52:08.762Z,73.10
2023-04-29T09:54:38.486Z,72.80
2023-04-29T09:57:07.375Z,72.90
2023-04-29T09:59:36.472Z,72.80
2023-04-29T10:02:15.574Z,72.70
2023-04-29T10:04:47.717Z,72.20
2023-04-29T10:07:17.362Z,71.80
2023-04-29T10:09:47.194Z,71.90
2023-04-29T10:12:18.358Z,72.00
2023-04-29T10:14:51.957Z,70.80
2023-04-29T10:17:25.533Z,69.40
2023-04-29T10:20:02.794Z,69.60
2023-04-29T10:22:37.322Z,69.60
2023-04-29T10:25:07.070Z,70.10
2023-04-29T10:27:36.434Z,70.20
2023-04-29T10:30:05.785Z,70.10
2023-04-29T10:32:49.699Z,70.10
2023-04-29T10:35:23.292Z,69.20
2023-04-29T10:37:52.865Z,68.40
2023-04-29T10:40:29.200Z,69.20
2023-04-29T10:42:57.367Z,68.80
2023-04-29T10:45:26.964Z,68.40
2023-04-29T10:48:13.994Z,68.20
2023-04-29T10:51:02.400Z,66.50
2023-04-29T10:53:30.735Z,67.80
2023-04-29T10:56:01.087Z,68.50
2023-04-29T10:58:43.821Z,67.00
2023-04-29T11:01:14.377Z,66.30
2023-04-29T11:03:55.625Z,66.20
2023-04-29T11:06:39.531Z,65.90
2023-04-29T11:09:11.062Z,65.40
2023-04-29T11:11:47.043Z,64.90
2023-04-29T11:14:15.988Z,64.30
2023-04-29T11:16:52.684Z,66.40
2023-04-29T11:19:20.766Z,65.70
2023-04-29T11:22:04.220Z,63.60
2023-04-29T11:24:32.147Z,63.50
2023-04-29T11:27:04.275Z,64.00
2023-04-29T11:29:32.423Z,64.00
2023-04-29T11:32:00.926Z,63.10
2023-04-29T11:34:28.820Z,62.40
2023-04-29T11:36:57.997Z,63.70
2023-04-29T11:39:25.898Z,63.00
2023-04-29T11:41:53.820Z,63.50
2023-04-29T11:44:23.692Z,62.60
2023-04-29T11:46:51.590Z,61.20
2023-04-29T11:49:20.160Z,61.00
2023-04-29T11:51:48.428Z,60.60
2023-04-29T11:54:17.612Z,59.80
2023-04-29T11:56:45.579Z,59.70
2023-04-29T11:59:13.634Z,60.30
2023-04-29T12:01:43.330Z,59.90
2023-04-29T12:04:12.206Z,58.80
2023-04-29T12:06:41.644Z,58.90
2023-04-29T12:09:09.465Z,60.20
2023-04-29T12:11:39.403Z,60.10
2023-04-29T12:14:07.905Z,59.40
2023-04-29T12:16:36.379Z,59.10
2023-04-29T12:19:04.327Z,60.60
2023-04-29T12:21:32.780Z,58.40
2023-04-29T12:24:01.573Z,59.30
2023-04-29T12:26:30.237Z,58.70
2023-04-29T12:29:00.307Z,58.90
2023-04-29T12:31:35.256Z,58.40
2023-04-29T12:34:07.518Z,59.30
2023-04-29T12:36:37.718Z,58.30
2023-04-29T12:39:10.275Z,58.60
2023-04-29T12:41:39.863Z,57.70
2023-04-29T12:44:10.770Z,57.70
2023-04-29T12:46:39.797Z,57.20
2023-04-29T12:49:08.449Z,57.50
2023-04-29T12:51:37.042Z,56.60
2023-04-29T12:54:06.953Z,56.40
2023-04-29T12:56:34.987Z,56.90
2023-04-29T12:59:11.816Z,56.60
2023-04-29T13:01:40.232Z,57.30
2023-04-29T13:04:09.157Z,57.60
2023-04-29T13:06:40.984Z,56.80
2023-04-29T13:09:17.878Z,57.10
2023-04-29T13:11:46.567Z,57.10
2023-04-29T13:14:16.403Z,56.00
2023-04-29T13:16:44.628Z,58.10
2023-04-29T13:19:27.699Z,57.10
2023-04-29T13:21:58.218Z,56.30
2023-04-29T13:24:26.223Z,56.60
2023-04-29T13:26:54.454Z,57.20
2023-04-29T13:29:24.111Z,55.10
2023-04-29T13:31:52.002Z,54.20
2023-04-29T13:34:20.426Z,55.30
2023-04-29T13:36:48.612Z,55.50
2023-04-29T13:39:17.406Z,55.10
2023-04-29T13:41:46.623Z,54.20
2023-04-29T13:44:27.130Z,55.60
2023-04-29T13:47:01.531Z,54.30
2023-04-29T13:50:01.998Z,54.30
2023-04-29T13:55:12.193Z,54.00
2023-04-29T14:00:25.056Z,53.70
2023-04-29T14:05:29.884Z,52.50
2023-04-29T14:07:57.825Z,53.10
2023-04-29T14:10:25.811Z,52.90
2023-04-29T14:12:54.314Z,52.70
2023-04-29T14:15:22.205Z,52.50
2023-04-29T14:17:51.371Z,52.10
2023-04-29T14:20:20.766Z,51.00
2023-04-29T14:22:48.667Z,51.70
2023-04-29T14:25:16.691Z,51.40
2023-04-29T14:27:44.552Z,51.80
2023-04-29T14:30:13.324Z,52.10
2023-04-29T14:32:41.190Z,51.90
2023-04-29T14:35:10.180Z,50.10
2023-04-29T14:37:39.435Z,50.70
2023-04-29T14:40:09.311Z,50.20
2023-04-29T14:42:37.136Z,50.70
2023-04-29T14:45:05.607Z,50.70
2023-04-29T14:47:33.543Z,49.70
2023-04-29T14:50:02.022Z,51.10
2023-04-29T14:52:29.945Z,49.80
2023-04-29T14:54:59.061Z,49.30
2023-04-29T14:57:26.877Z,48.70
2023-04-29T14:59:54.738Z,48.30
2023-04-29T15:02:22.663Z,48.30
2023-04-29T15:04:51.117Z,48.10
2023-04-29T15:07:19.388Z,47.40
2023-04-29T15:09:47.649Z,47.40
2023-04-29T15:12:17.997Z,47.50
2023-04-29T15:14:45.774Z,47.70
2023-04-29T15:17:13.589Z,47.40
2023-04-29T15:19:41.414Z,47.40
2023-04-29T15:22:09.238Z,47.30
2023-04-29T15:24:37.102Z,46.00
2023-04-29T15:27:05.077Z,45.90
2023-04-29T15:29:37.127Z,46.30
2023-04-29T15:32:05.130Z,45.20
2023-04-29T15:34:33.022Z,46.60
2023-04-29T15:37:02.594Z,45.50
2023-04-29T15:39:30.406Z,44.80
2023-04-29T15:41:59.045Z,45.20
2023-04-29T15:44:26.804Z,45.40
2023-04-29T15:46:56.112Z,44.90
2023-04-29T15:49:24.697Z,44.00
2023-04-29T15:51:52.741Z,44.20
2023-04-29T15:54:21.373Z,44.00
2023-04-29T15:56:49.477Z,43.90
2023-04-29T15:59:17.319Z,43.60
2023-04-29T16:01:45.614Z,43.20
2023-04-29T16:04:14.852Z,42.70
2023-04-29T16:06:42.821Z,42.40
2023-04-29T16:09:12.149Z,42.60
2023-04-29T16:11:40.054Z,42.60
2023-04-29T16:14:08.249Z,41.60
2023-04-29T16:16:36.106Z,41.70
2023-04-29T16:19:04.012Z,41.00
2023-04-29T16:21:33.959Z,40.30
2023-04-29T16:24:01.871Z,40.50
2023-04-29T16:26:29.933Z,40.50
2023-04-29T16:28:57.885Z,40.00
2023-04-29T16:31:25.851Z,39.50
2023-04-29T16:33:56.907Z,39.10
2023-04-29T16:36:24.825Z,38.90
2023-04-29T16:38:54.987Z,39.30
2023-04-29T16:41:23.954Z,39.40
2023-04-29T16:43:51.809Z,39.80
2023-04-29T16:46:19.858Z,40.30
2023-04-29T16:48:47.809Z,40.30
2023-04-29T16:51:15.674Z,40.40
2023-04-29T16:53:43.503Z,41.00
2023-04-29T16:56:12.957Z,41.10
2023-04-29T16:58:40.732Z,40.40
2023-04-29T17:01:09.302Z,40.30
2023-04-29T17:03:37.383Z,39.80
2023-04-29T17:06:06.504Z,39.90
2023-04-29T17:08:34.368Z,39.80
2023-04-29T17:11:02.756Z,39.90
2023-04-29T17:13:31.923Z,39.50
2023-04-29T17:15:59.898Z,39.60
2023-04-29T17:18:28.040Z,38.90
2023-04-29T17:20:55.910Z,39.30
2023-04-29T17:23:23.686Z,40.00
2023-04-29T17:25:51.560Z,39.70
2023-04-29T17:28:19.760Z,39.90
2023-04-29T17:30:48.905Z,40.40
2023-04-29T17:33:17.474Z,40.20
2023-04-29T17:35:46.140Z,40.30
2023-04-29T17:38:14.109Z,40.60
2023-04-29T17:40:41.926Z,41.00
2023-04-29T17:43:09.699Z,41.10
2023-04-29T17:45:41.357Z,41.10
2023-04-29T17:48:10.680Z,40.60
2023-04-29T17:50:39.012Z,40.90
2023-04-29T17:53:06.891Z,40.50
2023-04-29T17:55:34.718Z,40.90
2023-04-29T17:58:02.527Z,41.10
2023-04-29T18:00:30.740Z,40.70
2023-04-29T18:02:58.676Z,41.20
2023-04-29T18:05:28.168Z,41.40
2023-04-29T18:07:56.095Z,41.50
2023-04-29T18:10:24.004Z,41.70
2023-04-29T18:12:51.960Z,42.20
2023-04-29T18:15:22.256Z,41.80
2023-04-29T18:17:51.006Z,42.00
2023-04-29T18:20:18.965Z,42.00
2023-04-29T18:22:48.509Z,42.20
2023-04-29T18:25:17.268Z,41.80
2023-04-29T18:27:45.738Z,41.50
2023-04-29T18:30:14.202Z,42.00
2023-04-29T18:32:42.501Z,41.60
2023-04-29T18:35:10.812Z,41.90
2023-04-29T18:37:38.610Z,41.80
2023-04-29T18:40:09.361Z,41.60
2023-04-29T18:42:37.133Z,41.50
2023-04-29T18:45:05.891Z,41.60
2023-04-29T18:47:33.803Z,41.40
2023-04-29T18:50:01.798Z,41.40
2023-04-29T18:52:29.591Z,41.50
2023-04-29T18:54:57.553Z,41.60
2023-04-29T18:57:27.430Z,41.70
2023-04-29T18:59:55.960Z,41.40
2023-04-29T19:02:23.971Z,41.60
2023-04-29T19:04:52.001Z,41.70
2023-04-29T19:07:19.805Z,41.60
2023-04-29T19:09:47.607Z,41.80
2023-04-29T19:12:15.978Z,42.00
2023-04-29T19:14:45.194Z,42.00
2023-04-29T19:17:13.086Z,41.70
2023-04-29T19:19:40.907Z,42.00
2023-04-29T19:22:08.853Z,42.30
2023-04-29T19:24:37.001Z,42.30
2023-04-29T19:27:06.024Z,42.30
2023-04-29T19:29:33.793Z,42.60
2023-04-29T19:32:03.571Z,42.90
2023-04-29T19:34:31.500Z,42.90
2023-04-29T19:36:59.389Z,43.80
2023-04-29T19:39:27.956Z,43.40
2023-04-29T19:41:56.441Z,43.70
2023-04-29T19:44:24.351Z,43.80
2023-04-29T19:46:53.355Z,44.00
2023-04-29T19:49:22.726Z,44.10
2023-04-29T19:51:51.606Z,44.40
2023-04-29T19:54:19.631Z,44.60
2023-04-29T19:56:47.630Z,44.60
2023-04-29T19:59:15.920Z,44.70
2023-04-29T20:01:43.820Z,44.90
2023-04-29T20:04:12.689Z,45.20
2023-04-29T20:06:42.243Z,45.50
2023-04-29T20:09:11.487Z,45.80
2023-04-29T20:11:39.322Z,46.00
2023-04-29T20:14:07.112Z,46.20
2023-04-29T20:16:35.472Z,46.70
2023-04-29T20:19:03.740Z,47.30
2023-04-29T20:21:32.412Z,47.70
2023-04-29T20:24:01.774Z,48.00
2023-04-29T20:26:29.993Z,48.60
2023-04-29T20:28:58.462Z,48.90
2023-04-29T20:31:26.403Z,49.30
2023-04-29T20:33:54.705Z,50.20
2023-04-29T20:36:23.245Z,50.30
2023-04-29T20:38:51.529Z,50.50
2023-04-29T20:41:20.718Z,51.40
2023-04-29T20:43:49.097Z,51.30
2023-04-29T20:46:17.397Z,51.50
2023-04-29T20:48:46.041Z,51.90
2023-04-29T20:51:13.945Z,52.10
2023-04-29T20:53:41.784Z,52.50
2023-04-29T20:56:10.619Z,52.80
2023-04-29T20:58:39.911Z,53.80
2023-04-29T21:01:07.998Z,53.50
2023-04-29T21:03:36.010Z,53.80
2023-04-29T21:06:03.851Z,54.00
2023-04-29T21:08:32.406Z,54.20
2023-04-29T21:11:00.191Z,54.70
2023-04-29T21:13:28.035Z,54.80
2023-04-29T21:15:57.338Z,55.10
2023-04-29T21:18:25.464Z,56.20
2023-04-29T21:20:53.378Z,55.90
2023-04-29T21:23:22.685Z,56.80
2023-04-29T21:25:50.725Z,56.40
2023-04-29T21:28:18.516Z,54.50
2023-04-29T21:30:46.527Z,57.00
2023-04-29T21:33:16.092Z,57.20
2023-04-29T21:35:47.374Z,58.20
2023-04-29T21:38:16.725Z,57.70
2023-04-29T21:40:47.616Z,58.00
2023-04-29T21:43:16.459Z,58.40
2023-04-29T21:45:44.967Z,58.30
2023-04-29T21:48:17.562Z,58.70
2023-04-29T21:50:46.136Z,59.10
2023-04-29T21:53:16.459Z,59.20
2023-04-29T21:55:44.901Z,59.50
2023-04-29T21:58:13.105Z,59.60
2023-04-29T22:00:47.911Z,59.80
2023-04-29T22:03:17.357Z,60.00
2023-04-29T22:05:45.162Z,60.40
2023-04-29T22:08:13.174Z,60.50
2023-04-29T22:10:41.595Z,60.50
2023-04-29T22:13:09.506Z,60.80
2023-04-29T22:15:39.960Z,61.00
2023-04-29T22:18:07.908Z,61.10
2023-04-29T22:20:37.127Z,61.50
2023-04-29T22:23:04.977Z,61.80
2023-04-29T22:25:32.913Z,61.90
2023-04-29T22:28:01.073Z,62.00
2023-04-29T22:30:28.943Z,62.20
2023-04-29T22:32:56.881Z,62.10
2023-04-29T22:35:24.741Z,62.60
2023-04-29T22:37:53.943Z,62.60
2023-04-29T22:40:21.715Z,62.90
2023-04-29T22:42:49.819Z,63.10
2023-04-29T22:45:18.100Z,63.00
2023-04-29T22:47:46.130Z,63.30
2023-04-29T22:50:14.033Z,63.40
2023-04-29T22:52:41.907Z,63.60
2023-04-29T22:55:11.687Z,63.70
2023-04-29T22:57:39.477Z,63.50
2023-04-29T23:00:08.580Z,63.30
2023-04-29T23:02:36.412Z,63.10
2023-04-29T23:05:04.663Z,63.40
2023-04-29T23:07:32.701Z,63.40
2023-04-29T23:10:00.531Z,63.40
2023-04-29T23:12:30.417Z,63.30
2023-04-29T23:14:58.394Z,63.50
2023-04-29T23:17:26.285Z,62.80
2023-04-29T23:19:54.653Z,63.20
2023-04-29T23:22:22.748Z,62.90
2023-04-29T23:24:50.721Z,63.20
2023-04-29T23:27:18.532Z,63.30
2023-04-29T23:29:47.929Z,63.30
2023-04-29T23:32:16.192Z,63.80
2023-04-29T23:34:44.084Z,62.00
2023-04-29T23:37:11.905Z,64.00
2023-04-29T23:39:39.802Z,63.90
2023-04-29T23:42:07.632Z,64.00
2023-04-29T23:44:35.638Z,64.00
2023-04-29T23:47:04.798Z,64.10
2023-04-29T23:49:32.825Z,64.40
2023-04-29T23:52:01.269Z,64.30
2023-04-29T23:54:29.299Z,64.50
2023-04-29T23:56:57.115Z,64.70
2023-04-29T23:59:24.911Z,64.70
